SBSM/RIA METAR and TAF weather

Enter ICAO airport designator
Station Type Date Time Source
SBSM METAR 2022/01/18 03:00 UTC NOAA

SBSM 180300Z 20005KT 9999 -TSRA SCT005 BKN030 FEW045CB BKN080 24/23 Q1011


Station Type Date Time Source
SBSM Decoded METAR 2022/01/18 03:00 UTC NOAA

Santa Maria Aero-Porto , Brazil (SBSM) 29-43S 053-42W
Jan 17, 2022 - 10:00 PM EST / 2022.01.18 0300 UTC
Wind: from the SSW (200 degrees) at 6 MPH (5 KT):0
Visibility: greater than 7 mile(s):0
Sky conditions: mostly cloudy
Weather: light rain with thunder; Cumulonimbus clouds observed
Temperature: 75 F (24 C)
Dew Point: 73 F (23 C)
Relative Humidity: 94%
Pressure (altimeter): 29.85 in. Hg (1011 hPa)
ob: SBSM 180300Z 20005KT 9999 -TSRA SCT005 BKN030 FEW045CB BKN080 24/23 Q1011
cycle: 3

Station Type Date Time Source
SBSM TAF 2022/01/17 12:27 UTC NOAA

TAF SBSM 170900Z 1712/1724 34011KT CAVOK TX39/1717Z TN32/1723Z
BECMG 1714/1716 8000 SCT035 PROB40
TEMPO 1720/1724 4000 TSRA SCT008 SCT035 FEW040CB
RMK PFD

Example: see airport list